createdAt,value
2023-02-02T00:01:32.540Z,3.20
2023-02-02T00:04:00.636Z,3.20
2023-02-02T00:06:29.697Z,3.20
2023-02-02T00:08:59.327Z,3.30
2023-02-02T00:11:27.354Z,3.30
2023-02-02T00:13:55.562Z,3.36
2023-02-02T00:16:26.486Z,3.40
2023-02-02T00:19:02.588Z,3.40
2023-02-02T00:21:30.616Z,3.50
2023-02-02T00:23:58.550Z,3.50
2023-02-02T00:26:26.679Z,3.50
2023-02-02T00:28:55.346Z,3.50
2023-02-02T00:31:23.627Z,3.40
2023-02-02T00:33:51.678Z,3.40
2023-02-02T00:36:20.373Z,3.40
2023-02-02T00:38:49.072Z,3.40
2023-02-02T00:41:17.856Z,3.40
2023-02-02T00:44:08.698Z,3.40
2023-02-02T00:46:41.812Z,3.36
2023-02-02T00:49:10.327Z,3.30
2023-02-02T00:51:38.504Z,3.30
2023-02-02T00:54:06.567Z,3.28
2023-02-02T00:56:34.704Z,3.30
2023-02-02T00:59:02.717Z,3.30
2023-02-02T01:01:30.893Z,3.26
2023-02-02T01:03:59.258Z,3.20
2023-02-02T01:06:27.279Z,3.20
2023-02-02T01:08:55.407Z,3.14
2023-02-02T01:11:23.783Z,3.10
2023-02-02T01:13:51.961Z,3.10
2023-02-02T01:16:22.635Z,3.08
2023-02-02T01:18:51.168Z,3.00
2023-02-02T01:21:19.381Z,3.00
2023-02-02T01:23:47.718Z,2.90
2023-02-02T01:26:15.793Z,2.90
2023-02-02T01:28:43.860Z,2.90
2023-02-02T01:31:13.879Z,2.84
2023-02-02T01:33:43.852Z,2.82
2023-02-02T01:36:14.380Z,2.82
2023-02-02T01:38:42.702Z,2.80
2023-02-02T01:41:13.574Z,2.78
2023-02-02T01:43:41.713Z,2.80
2023-02-02T01:46:28.007Z,2.78
2023-02-02T01:48:57.613Z,2.78
2023-02-02T01:51:30.036Z,2.72
2023-02-02T01:53:58.164Z,2.70
2023-02-02T01:56:29.539Z,2.70
2023-02-02T01:58:57.783Z,2.70
2023-02-02T02:01:26.699Z,2.70
2023-02-02T02:03:54.948Z,2.70
2023-02-02T02:06:26.091Z,2.70
2023-02-02T02:09:03.580Z,2.80
2023-02-02T02:11:33.083Z,2.80
2023-02-02T02:14:22.044Z,2.72
2023-02-02T02:17:28.192Z,2.70
2023-02-02T02:20:53.501Z,2.70
2023-02-02T02:24:06.447Z,2.70
2023-02-02T02:26:34.443Z,2.60
2023-02-02T02:29:41.095Z,2.60
2023-02-02T02:32:31.887Z,2.60
2023-02-02T02:35:19.273Z,2.60
2023-02-02T02:37:58.056Z,2.46
2023-02-02T02:40:56.956Z,2.40
2023-02-02T02:43:27.916Z,2.30
2023-02-02T02:45:56.462Z,2.20
2023-02-02T02:48:26.031Z,2.22
2023-02-02T02:50:54.129Z,2.22
2023-02-02T02:53:22.281Z,2.26
2023-02-02T02:56:06.778Z,2.30
2023-02-02T02:59:05.180Z,2.30
2023-02-02T03:01:40.609Z,2.30
2023-02-02T03:04:12.045Z,2.30
2023-02-02T03:06:50.318Z,2.30
2023-02-02T03:09:32.811Z,2.30
2023-02-02T03:12:01.026Z,2.24
2023-02-02T03:14:29.007Z,2.30
2023-02-02T03:16:57.070Z,2.20
2023-02-02T03:19:25.139Z,2.10
2023-02-02T03:21:53.315Z,2.10
2023-02-02T03:24:21.234Z,2.10
2023-02-02T03:26:49.266Z,2.00
2023-02-02T03:29:17.635Z,1.90
2023-02-02T03:31:45.864Z,1.88
2023-02-02T03:34:14.082Z,1.90
2023-02-02T03:36:42.033Z,1.90
2023-02-02T03:39:10.033Z,1.84
2023-02-02T03:41:38.169Z,1.80
2023-02-02T03:44:06.362Z,1.76
2023-02-02T03:46:35.441Z,1.70
2023-02-02T03:49:03.579Z,1.70
2023-02-02T03:51:31.499Z,1.70
2023-02-02T03:53:59.462Z,1.60
2023-02-02T03:56:27.363Z,1.58
2023-02-02T03:58:55.401Z,1.50
2023-02-02T04:01:29.536Z,1.60
2023-02-02T04:03:57.899Z,1.70
2023-02-02T04:06:26.006Z,1.60
2023-02-02T04:08:53.911Z,1.60
2023-02-02T04:11:22.105Z,1.50
2023-02-02T04:13:50.080Z,1.50
2023-02-02T04:16:18.080Z,1.50
2023-02-02T04:18:46.217Z,1.56
2023-02-02T04:21:14.135Z,1.60
2023-02-02T04:23:42.022Z,1.60
2023-02-02T04:26:10.025Z,1.50
2023-02-02T04:28:38.007Z,1.60
2023-02-02T04:31:06.153Z,1.60
2023-02-02T04:33:34.537Z,1.60
2023-02-02T04:36:02.711Z,1.50
2023-02-02T04:38:30.784Z,1.50
2023-02-02T04:40:59.058Z,1.50
2023-02-02T04:43:29.535Z,1.50
2023-02-02T04:45:57.645Z,1.60
2023-02-02T04:48:25.831Z,1.60
2023-02-02T04:51:00.716Z,1.60
2023-02-02T04:53:29.223Z,1.60
2023-02-02T04:55:57.313Z,1.60
2023-02-02T04:58:25.595Z,1.60
2023-02-02T05:00:53.753Z,1.60
2023-02-02T05:03:21.946Z,1.60
2023-02-02T05:05:50.010Z,1.60
2023-02-02T05:08:17.914Z,1.60
2023-02-02T05:10:45.955Z,1.60
2023-02-02T05:13:14.016Z,1.54
2023-02-02T05:15:41.993Z,1.50
2023-02-02T05:18:09.955Z,1.60
2023-02-02T05:20:37.928Z,1.60
2023-02-02T05:23:06.067Z,1.70
2023-02-02T05:25:34.044Z,1.70
2023-02-02T05:28:02.127Z,1.70
2023-02-02T05:30:31.694Z,1.64
2023-02-02T05:33:03.528Z,1.60
2023-02-02T05:35:31.868Z,1.50
2023-02-02T05:38:00.261Z,1.40
2023-02-02T05:40:44.577Z,1.50
2023-02-02T05:43:15.649Z,1.40
2023-02-02T05:45:45.008Z,1.40
2023-02-02T05:48:15.153Z,1.40
2023-02-02T05:50:44.266Z,1.40
2023-02-02T05:53:20.437Z,1.50
2023-02-02T05:55:49.636Z,1.56
2023-02-02T05:58:18.495Z,1.56
2023-02-02T06:00:46.814Z,1.60
2023-02-02T06:03:14.871Z,1.60
2023-02-02T06:05:43.435Z,1.60
2023-02-02T06:08:11.423Z,1.58
2023-02-02T06:10:42.367Z,1.50
2023-02-02T06:13:10.431Z,1.46
2023-02-02T06:15:38.479Z,1.40
2023-02-02T06:18:07.705Z,1.42
2023-02-02T06:20:36.184Z,1.50
2023-02-02T06:23:05.076Z,1.42
2023-02-02T06:25:34.587Z,1.40
2023-02-02T06:28:02.554Z,1.32
2023-02-02T06:30:30.517Z,1.30
2023-02-02T06:32:59.531Z,1.40
2023-02-02T06:35:27.906Z,1.40
2023-02-02T06:37:56.049Z,1.44
2023-02-02T06:40:24.041Z,1.40
2023-02-02T06:42:59.205Z,1.50
2023-02-02T06:45:28.043Z,1.60
2023-02-02T06:47:58.985Z,1.70
2023-02-02T06:50:32.507Z,1.70
2023-02-02T06:53:00.973Z,1.80
2023-02-02T06:55:29.134Z,1.80
2023-02-02T06:57:58.128Z,1.80
2023-02-02T07:00:27.132Z,1.86
2023-02-02T07:02:56.019Z,1.96
2023-02-02T07:05:25.150Z,1.90
2023-02-02T07:07:53.711Z,1.90
2023-02-02T07:11:08.426Z,1.80
2023-02-02T07:13:13.405Z,1.70
2023-02-02T07:15:43.807Z,1.76
2023-02-02T07:18:11.957Z,1.70
2023-02-02T07:20:40.363Z,1.60
2023-02-02T07:23:08.626Z,1.60
2023-02-02T07:25:36.879Z,1.50
2023-02-02T07:28:05.192Z,1.40
2023-02-02T07:30:33.627Z,1.42
2023-02-02T07:33:02.360Z,1.50
2023-02-02T07:35:30.944Z,1.50
2023-02-02T07:37:59.115Z,1.60
2023-02-02T07:40:27.675Z,1.60
2023-02-02T07:42:56.458Z,1.70
2023-02-02T07:45:27.938Z,1.80
2023-02-02T07:47:59.837Z,1.80
2023-02-02T07:50:28.793Z,1.90
2023-02-02T07:53:01.181Z,2.10
2023-02-02T07:55:29.652Z,2.26
2023-02-02T07:57:59.196Z,2.40
2023-02-02T08:00:27.792Z,2.50
2023-02-02T08:02:56.052Z,2.60
2023-02-02T08:05:24.684Z,2.84
2023-02-02T08:07:53.067Z,2.90
2023-02-02T08:10:21.042Z,3.00
2023-02-02T08:12:49.018Z,3.10
2023-02-02T08:15:20.101Z,3.10
2023-02-02T08:17:50.165Z,3.20
2023-02-02T08:20:18.743Z,3.30
2023-02-02T08:22:46.815Z,3.40
2023-02-02T08:25:14.769Z,3.48
2023-02-02T08:27:44.603Z,3.60
2023-02-02T08:30:13.745Z,3.60
2023-02-02T08:32:41.864Z,3.60
2023-02-02T08:35:09.941Z,3.62
2023-02-02T08:37:38.011Z,3.68
2023-02-02T08:40:06.813Z,3.50
2023-02-02T08:42:34.849Z,3.50
2023-02-02T08:46:02.397Z,3.40
2023-02-02T08:48:05.510Z,3.40
2023-02-02T08:50:39.179Z,3.40
2023-02-02T08:53:07.413Z,3.40
2023-02-02T08:55:35.570Z,3.38
2023-02-02T08:58:03.654Z,3.30
2023-02-02T09:00:31.850Z,3.30
2023-02-02T09:02:59.823Z,3.24
2023-02-02T09:05:31.272Z,3.20
2023-02-02T09:07:59.855Z,3.20
2023-02-02T09:10:28.651Z,3.20
2023-02-02T09:12:57.863Z,3.22
2023-02-02T09:15:26.322Z,3.40
2023-02-02T09:17:54.481Z,3.60
2023-02-02T09:20:22.524Z,3.80
2023-02-02T09:22:50.595Z,3.90
2023-02-02T09:25:20.628Z,4.00
2023-02-02T09:27:48.570Z,4.00
2023-02-02T09:30:17.182Z,4.00
2023-02-02T09:32:45.868Z,4.00
2023-02-02T09:35:14.020Z,4.08
2023-02-02T09:37:44.313Z,4.04
2023-02-02T09:40:19.317Z,4.10
2023-02-02T09:43:04.810Z,4.10
2023-02-02T09:45:36.518Z,4.10
2023-02-02T09:48:30.694Z,4.10
2023-02-02T09:51:00.571Z,4.10
2023-02-02T09:54:01.211Z,4.10
2023-02-02T09:56:39.225Z,4.20
2023-02-02T09:59:19.831Z,4.20
2023-02-02T10:01:56.891Z,4.30
2023-02-02T10:04:38.969Z,4.30
2023-02-02T10:07:18.820Z,4.24
2023-02-02T10:09:52.036Z,4.10
2023-02-02T10:12:49.752Z,4.08
2023-02-02T10:15:33.984Z,4.00
2023-02-02T10:18:21.424Z,3.90
2023-02-02T10:21:19.689Z,3.80
2023-02-02T10:23:47.571Z,3.72
2023-02-02T10:26:22.621Z,3.70
2023-02-02T10:29:09.342Z,3.64
2023-02-02T10:31:44.966Z,3.68
2023-02-02T10:34:33.145Z,3.60
2023-02-02T10:37:04.246Z,3.60
2023-02-02T10:39:38.320Z,3.58
2023-02-02T10:42:16.322Z,3.60
2023-02-02T10:44:59.916Z,3.66
2023-02-02T10:47:30.167Z,3.72
2023-02-02T10:50:19.503Z,3.80
2023-02-02T10:52:54.676Z,3.90
2023-02-02T10:55:33.295Z,3.90
2023-02-02T10:58:13.708Z,3.80
2023-02-02T11:01:08.003Z,3.80
2023-02-02T11:03:36.489Z,3.80
2023-02-02T11:06:24.764Z,3.88
2023-02-02T11:08:57.051Z,3.80
2023-02-02T11:11:47.454Z,3.90
2023-02-02T11:14:18.953Z,4.02
2023-02-02T11:16:47.403Z,4.10
2023-02-02T11:19:18.233Z,4.22
2023-02-02T11:21:50.464Z,4.40
2023-02-02T11:24:27.761Z,4.50
2023-02-02T11:26:55.973Z,4.64
2023-02-02T11:29:39.317Z,4.76
2023-02-02T11:32:20.531Z,4.70
2023-02-02T11:34:48.685Z,4.70
2023-02-02T11:37:21.445Z,4.70
2023-02-02T11:39:49.527Z,4.70
2023-02-02T11:42:20.192Z,4.70
2023-02-02T11:45:02.143Z,4.70
2023-02-02T11:47:32.820Z,4.70
2023-02-02T11:50:02.035Z,4.70
2023-02-02T11:52:32.696Z,4.70
2023-02-02T11:55:02.233Z,4.70
2023-02-02T11:57:30.897Z,4.80
2023-02-02T12:00:11.055Z,4.90
2023-02-02T12:02:41.169Z,4.90
2023-02-02T12:05:13.557Z,4.90
2023-02-02T12:07:42.774Z,4.92
2023-02-02T12:14:45.862Z,5.00
2023-02-02T12:17:41.825Z,5.02
2023-02-02T12:20:27.570Z,5.10
2023-02-02T12:23:23.890Z,5.30
2023-02-02T12:26:00.656Z,5.30
2023-02-02T12:28:50.622Z,5.28
2023-02-02T12:31:27.853Z,5.26
2023-02-02T12:34:17.098Z,5.30
2023-02-02T12:36:56.020Z,5.20
2023-02-02T12:39:27.980Z,5.20
2023-02-02T12:42:18.272Z,5.20
2023-02-02T12:45:03.576Z,5.10
2023-02-02T12:48:29.948Z,5.20
2023-02-02T12:50:57.913Z,5.10
2023-02-02T12:53:34.731Z,5.20
2023-02-02T12:56:33.831Z,5.18
2023-02-02T12:59:04.971Z,5.34
2023-02-02T13:01:54.083Z,5.40
2023-02-02T13:04:22.517Z,5.30
2023-02-02T13:07:14.247Z,5.40
2023-02-02T13:09:48.581Z,5.50
2023-02-02T13:12:18.371Z,5.50
2023-02-02T13:14:55.038Z,5.42
2023-02-02T13:17:43.811Z,5.60
2023-02-02T13:20:46.081Z,5.70
2023-02-02T13:23:18.954Z,6.00
2023-02-02T13:25:53.473Z,6.08
2023-02-02T13:28:43.801Z,5.96
2023-02-02T13:31:18.280Z,5.70
2023-02-02T13:33:48.650Z,5.62
2023-02-02T13:36:25.737Z,5.50
2023-02-02T13:38:54.749Z,5.60
2023-02-02T13:41:23.907Z,5.58
2023-02-02T13:44:01.790Z,5.50
2023-02-02T13:47:12.152Z,5.40
2023-02-02T13:49:45.144Z,5.30
2023-02-02T13:52:29.009Z,5.10
2023-02-02T13:55:29.519Z,5.00
2023-02-02T13:58:26.777Z,4.88
2023-02-02T14:00:57.539Z,4.90
2023-02-02T14:03:33.860Z,4.78
2023-02-02T14:06:10.155Z,4.70
2023-02-02T14:08:38.405Z,4.60
2023-02-02T14:11:07.684Z,4.60
2023-02-02T14:14:02.480Z,4.60
2023-02-02T14:16:33.539Z,4.50
2023-02-02T14:19:02.623Z,4.50
2023-02-02T14:21:36.140Z,4.50
2023-02-02T14:24:26.589Z,4.60
2023-02-02T14:26:55.525Z,4.50
2023-02-02T14:29:46.422Z,4.50
2023-02-02T14:32:27.784Z,4.50
2023-02-02T14:35:14.620Z,4.50
2023-02-02T14:37:52.988Z,4.50
2023-02-02T14:40:29.862Z,4.40
2023-02-02T14:43:22.999Z,4.40
2023-02-02T14:46:13.457Z,4.40
2023-02-02T14:48:47.587Z,4.50
2023-02-02T14:51:27.155Z,4.50
2023-02-02T14:54:01.293Z,4.50
2023-02-02T14:56:45.675Z,4.50
2023-02-02T14:59:27.496Z,4.50
2023-02-02T15:02:36.221Z,4.50
2023-02-02T15:05:29.674Z,4.58
2023-02-02T15:08:12.915Z,4.50
2023-02-02T15:10:56.884Z,4.50
2023-02-02T15:13:28.855Z,4.50
2023-02-02T15:16:17.321Z,4.50
2023-02-02T15:18:45.641Z,4.50
2023-02-02T15:21:15.678Z,4.42
2023-02-02T15:23:46.818Z,4.46
2023-02-02T15:26:17.865Z,4.40
2023-02-02T15:29:11.703Z,4.40
2023-02-02T15:31:52.382Z,4.40
2023-02-02T15:34:37.651Z,4.40
2023-02-02T15:37:07.222Z,4.32
2023-02-02T15:39:38.310Z,4.30
2023-02-02T15:42:53.161Z,4.30
2023-02-02T15:45:45.173Z,4.28
2023-02-02T15:48:22.492Z,4.20
2023-02-02T15:50:54.763Z,4.20
2023-02-02T15:53:41.147Z,4.10
2023-02-02T15:56:29.667Z,4.04
2023-02-02T15:58:59.610Z,4.00
2023-02-02T16:01:29.755Z,3.90
2023-02-02T16:04:18.028Z,3.90
2023-02-02T16:06:45.963Z,3.80
2023-02-02T16:09:30.063Z,3.80
2023-02-02T16:11:58.123Z,3.70
2023-02-02T16:14:26.031Z,3.50
2023-02-02T16:16:54.414Z,3.40
2023-02-02T16:19:24.399Z,3.24
2023-02-02T16:22:09.414Z,3.20
2023-02-02T16:24:40.269Z,3.10
2023-02-02T16:27:12.349Z,3.10
2023-02-02T16:29:41.284Z,3.10
2023-02-02T16:32:32.193Z,3.10
2023-02-02T16:35:04.870Z,3.20
2023-02-02T16:37:34.370Z,3.30
2023-02-02T16:40:16.888Z,3.30
2023-02-02T16:42:44.900Z,3.34
2023-02-02T16:45:34.010Z,3.40
2023-02-02T16:48:55.983Z,3.40
2023-02-02T16:51:25.047Z,3.50
2023-02-02T16:53:58.280Z,3.52
2023-02-02T16:56:30.407Z,3.50
2023-02-02T16:59:00.496Z,3.54
2023-02-02T17:01:43.258Z,3.60
2023-02-02T17:04:37.692Z,3.60
2023-02-02T17:07:10.364Z,3.60
2023-02-02T17:09:41.108Z,3.60
2023-02-02T17:12:30.432Z,3.60
2023-02-02T17:15:05.077Z,3.60
2023-02-02T17:17:33.100Z,3.60
2023-02-02T17:20:01.174Z,3.66
2023-02-02T17:22:29.270Z,3.70
2023-02-02T17:24:57.626Z,3.64
2023-02-02T17:27:33.465Z,3.60
2023-02-02T17:30:02.673Z,3.60
2023-02-02T17:32:30.976Z,3.50
2023-02-02T17:34:59.030Z,3.42
2023-02-02T17:37:26.947Z,3.30
2023-02-02T17:39:54.887Z,3.20
2023-02-02T17:42:25.144Z,3.18
2023-02-02T17:44:53.276Z,3.10
2023-02-02T17:47:21.527Z,3.10
2023-02-02T17:49:49.600Z,3.10
2023-02-02T17:52:17.976Z,3.20
2023-02-02T17:54:46.250Z,3.20
2023-02-02T17:57:15.642Z,3.30
2023-02-02T17:59:43.553Z,3.40
2023-02-02T18:02:13.862Z,3.40
2023-02-02T18:04:44.061Z,3.50
2023-02-02T18:07:13.569Z,3.50
2023-02-02T18:09:41.966Z,3.62
2023-02-02T18:12:10.022Z,3.62
2023-02-02T18:14:38.285Z,3.80
2023-02-02T18:17:08.413Z,3.80
2023-02-02T18:19:36.630Z,3.80
2023-02-02T18:22:06.344Z,3.80
2023-02-02T18:24:34.890Z,3.80
2023-02-02T18:27:02.947Z,3.80
2023-02-02T18:29:31.115Z,3.88
2023-02-02T18:31:59.398Z,3.90
2023-02-02T18:34:31.791Z,3.90
2023-02-02T18:37:00.040Z,3.90
2023-02-02T18:39:28.083Z,3.90
2023-02-02T18:41:56.288Z,3.90
2023-02-02T18:44:24.670Z,3.90
2023-02-02T18:46:53.274Z,3.90
2023-02-02T18:49:21.623Z,3.80
2023-02-02T18:51:49.699Z,3.80
2023-02-02T18:54:17.731Z,3.80
2023-02-02T18:56:45.839Z,3.90
2023-02-02T18:59:14.016Z,3.90
2023-02-02T19:01:42.269Z,3.86
2023-02-02T19:04:10.396Z,3.88
2023-02-02T19:06:57.176Z,3.90
2023-02-02T19:09:25.407Z,3.84
2023-02-02T19:11:55.031Z,3.80
2023-02-02T19:14:33.430Z,3.80
2023-02-02T19:17:28.267Z,3.90
2023-02-02T19:19:59.748Z,3.94
2023-02-02T19:22:31.368Z,3.90
2023-02-02T19:24:59.647Z,3.90
2023-02-02T19:27:27.671Z,3.80
2023-02-02T19:29:56.691Z,3.80
2023-02-02T19:32:26.998Z,3.72
2023-02-02T19:34:58.037Z,3.70
2023-02-02T19:37:27.777Z,3.70
2023-02-02T19:40:09.267Z,3.70
2023-02-02T19:42:41.084Z,3.60
2023-02-02T19:45:30.603Z,3.60
2023-02-02T19:48:01.890Z,3.50
2023-02-02T19:50:36.792Z,3.40
2023-02-02T19:53:13.327Z,3.40
2023-02-02T19:55:43.069Z,3.40
2023-02-02T19:58:18.227Z,3.30
2023-02-02T20:00:47.540Z,3.30
2023-02-02T20:03:16.192Z,3.22
2023-02-02T20:05:49.304Z,3.20
2023-02-02T20:08:26.689Z,3.20
2023-02-02T20:10:56.303Z,3.20
2023-02-02T20:13:26.002Z,3.10
2023-02-02T20:16:03.624Z,3.00
2023-02-02T20:18:41.256Z,3.00
2023-02-02T20:21:17.612Z,3.00
2023-02-02T20:23:48.543Z,3.00
2023-02-02T20:26:27.670Z,3.00
2023-02-02T20:29:00.321Z,3.08
2023-02-02T20:31:36.290Z,3.06
2023-02-02T20:34:17.459Z,3.00
2023-02-02T20:36:45.440Z,3.00
2023-02-02T20:39:16.632Z,2.88
2023-02-02T20:41:44.901Z,2.70
2023-02-02T20:44:13.048Z,2.60
2023-02-02T20:46:40.986Z,2.58
2023-02-02T20:49:09.424Z,2.50
2023-02-02T20:51:40.869Z,2.38
2023-02-02T20:54:09.708Z,2.30
2023-02-02T20:56:38.035Z,2.30
2023-02-02T20:59:07.347Z,2.20
2023-02-02T21:01:36.123Z,2.20
2023-02-02T21:04:07.302Z,2.20
2023-02-02T21:06:36.057Z,2.20
2023-02-02T21:09:04.770Z,2.20
2023-02-02T21:11:34.698Z,2.18
2023-02-02T21:14:05.703Z,2.10
2023-02-02T21:16:33.708Z,2.10
2023-02-02T21:19:01.679Z,2.10
2023-02-02T21:21:29.654Z,2.10
2023-02-02T21:23:57.749Z,2.00
2023-02-02T21:26:30.837Z,1.90
2023-02-02T21:28:59.458Z,1.90
2023-02-02T21:31:27.645Z,1.90
2023-02-02T21:33:55.795Z,1.80
2023-02-02T21:36:33.165Z,1.78
2023-02-02T21:39:25.122Z,1.80
2023-02-02T21:42:08.555Z,1.70
2023-02-02T21:44:41.424Z,1.70
2023-02-02T21:47:35.938Z,1.70
2023-02-02T21:50:18.053Z,1.70
2023-02-02T21:52:46.512Z,1.70
2023-02-02T21:55:34.865Z,1.70
2023-02-02T21:58:19.507Z,1.50
2023-02-02T22:00:48.361Z,1.50
2023-02-02T22:03:40.448Z,1.40
2023-02-02T22:06:19.349Z,1.40
2023-02-02T22:08:48.628Z,1.36
2023-02-02T22:11:31.235Z,1.40
2023-02-02T22:14:20.342Z,1.40
2023-02-02T22:16:53.549Z,1.40
2023-02-02T22:19:34.598Z,1.40
2023-02-02T22:22:08.619Z,1.50
2023-02-02T22:24:36.519Z,1.50
2023-02-02T22:27:25.940Z,1.50
2023-02-02T22:29:58.628Z,1.54
2023-02-02T22:32:26.735Z,1.54
2023-02-02T22:34:54.697Z,1.54
2023-02-02T22:37:22.858Z,1.60
2023-02-02T22:39:50.809Z,1.60
2023-02-02T22:42:18.870Z,1.60
2023-02-02T22:44:47.260Z,1.70
2023-02-02T22:47:15.404Z,1.70
2023-02-02T22:49:43.278Z,1.70
2023-02-02T22:52:11.258Z,1.70
2023-02-02T22:54:39.536Z,1.68
2023-02-02T22:57:07.610Z,1.70
2023-02-02T22:59:35.582Z,1.70
2023-02-02T23:02:03.531Z,1.70
2023-02-02T23:04:31.434Z,1.80
2023-02-02T23:06:59.355Z,1.78
2023-02-02T23:09:27.303Z,1.70
2023-02-02T23:11:55.318Z,1.74
2023-02-02T23:14:23.279Z,1.72
2023-02-02T23:16:51.352Z,1.72
2023-02-02T23:19:19.534Z,1.80
2023-02-02T23:21:47.494Z,1.80
2023-02-02T23:24:15.447Z,1.80
2023-02-02T23:26:43.433Z,1.80
2023-02-02T23:29:11.368Z,1.80
2023-02-02T23:31:39.623Z,1.80
2023-02-02T23:34:07.607Z,1.86
2023-02-02T23:36:35.465Z,1.90
2023-02-02T23:39:03.497Z,2.00
2023-02-02T23:41:31.446Z,1.94
2023-02-02T23:43:59.417Z,1.96
2023-02-02T23:46:27.406Z,2.00
2023-02-02T23:48:55.761Z,2.00
2023-02-02T23:51:24.347Z,2.00
2023-02-02T23:53:52.323Z,2.06
2023-02-02T23:56:20.385Z,2.10
2023-02-02T23:58:48.455Z,2.10
